createdAt,value
2018-04-10T00:00:06.824Z,46.67
2018-04-10T00:01:06.827Z,46.68
2018-04-10T00:02:06.823Z,46.75
2018-04-10T00:03:06.784Z,46.65
2018-04-10T00:04:06.801Z,46.68
2018-04-10T00:05:06.770Z,46.71
2018-04-10T00:06:06.810Z,46.64
2018-04-10T00:07:07.279Z,46.65
2018-04-10T00:08:06.793Z,46.68
2018-04-10T00:09:06.772Z,46.66
2018-04-10T00:10:06.780Z,46.65
2018-04-10T00:11:07.019Z,46.68
2018-04-10T00:12:07.395Z,46.68
2018-04-10T00:13:06.802Z,46.7
2018-04-10T00:14:06.809Z,46.68
2018-04-10T00:15:06.991Z,46.67
2018-04-10T00:16:06.791Z,46.75
2018-04-10T00:17:06.849Z,46.67
2018-04-10T00:18:06.901Z,46.68
2018-04-10T00:19:06.888Z,46.72
2018-04-10T00:20:06.800Z,46.68
2018-04-10T00:21:06.803Z,46.69
2018-04-10T00:22:06.918Z,46.75
2018-04-10T00:23:06.827Z,46.69
2018-04-10T00:24:06.802Z,46.69
2018-04-10T00:25:06.797Z,46.72
2018-04-10T00:26:06.782Z,46.68
2018-04-10T00:27:06.853Z,46.69
2018-04-10T00:28:06.815Z,46.73
2018-04-10T00:29:06.776Z,46.68
2018-04-10T00:30:06.769Z,46.68
2018-04-10T00:31:06.822Z,46.71
2018-04-10T00:32:06.912Z,46.75
2018-04-10T00:33:06.773Z,46.69
2018-04-10T00:34:06.804Z,46.74
2018-04-10T00:35:06.790Z,46.75
2018-04-10T00:36:06.764Z,46.69
2018-04-10T00:37:06.813Z,46.69
2018-04-10T00:38:06.834Z,46.69
2018-04-10T00:39:06.775Z,46.7
2018-04-10T00:40:06.763Z,46.74
2018-04-10T00:41:06.803Z,46.7
2018-04-10T00:42:06.805Z,46.69
2018-04-10T00:43:06.829Z,46.73
2018-04-10T00:44:06.782Z,46.7
2018-04-10T00:45:06.801Z,46.71
2018-04-10T00:46:06.823Z,46.71
2018-04-10T00:47:06.943Z,46.73
2018-04-10T00:48:06.738Z,46.74
2018-04-10T00:49:06.756Z,46.76
2018-04-10T00:50:06.925Z,46.78
2018-04-10T00:51:06.782Z,46.7
2018-04-10T00:52:06.844Z,46.75
2018-04-10T00:53:06.789Z,46.77
2018-04-10T00:54:06.821Z,46.77
2018-04-10T00:55:06.816Z,46.77
2018-04-10T00:56:06.867Z,46.73
2018-04-10T00:57:06.787Z,46.7
2018-04-10T00:58:06.792Z,46.77
2018-04-10T00:59:06.795Z,46.75
2018-04-10T01:00:06.792Z,46.74
2018-04-10T01:01:06.828Z,46.77
2018-04-10T01:02:06.813Z,46.74
2018-04-10T01:03:06.807Z,46.75
2018-04-10T01:04:06.805Z,46.71
2018-04-10T01:05:06.603Z,46.74
2018-04-10T01:06:06.887Z,46.71
2018-04-10T01:07:06.818Z,46.72
2018-04-10T01:08:06.829Z,46.75
2018-04-10T01:09:06.908Z,46.77
2018-04-10T01:10:06.878Z,46.74
2018-04-10T01:11:06.853Z,46.76
2018-04-10T01:12:07.007Z,46.74
2018-04-10T01:13:06.913Z,46.7
2018-04-10T01:14:06.931Z,46.74
2018-04-10T01:15:06.789Z,46.74
2018-04-10T01:16:06.812Z,46.7
2018-04-10T01:17:06.883Z,46.71
2018-04-10T01:18:06.822Z,46.72
2018-04-10T01:19:06.762Z,46.74
2018-04-10T01:20:06.796Z,46.72
2018-04-10T01:21:06.824Z,46.76
2018-04-10T01:22:06.843Z,46.75
2018-04-10T01:23:06.822Z,46.72
2018-04-10T01:24:06.775Z,46.72
2018-04-10T01:25:06.788Z,46.84
2018-04-10T01:26:06.798Z,46.77
2018-04-10T01:27:06.796Z,46.74
2018-04-10T01:28:06.792Z,46.7
2018-04-10T01:29:06.816Z,46.74
2018-04-10T01:30:06.759Z,46.77
2018-04-10T01:31:06.814Z,46.74
2018-04-10T01:32:06.753Z,46.74
2018-04-10T01:33:06.805Z,46.7
2018-04-10T01:34:06.795Z,46.71
2018-04-10T01:35:06.907Z,46.71
2018-04-10T01:36:06.773Z,46.68
2018-04-10T01:37:06.799Z,46.74
2018-04-10T01:38:06.798Z,46.72
2018-04-10T01:39:06.775Z,46.68
2018-04-10T01:40:06.767Z,46.74
2018-04-10T01:41:06.785Z,46.69
2018-04-10T01:42:06.844Z,46.7
2018-04-10T01:43:06.772Z,46.76
2018-04-10T01:44:06.796Z,46.71
2018-04-10T01:45:06.861Z,46.72
2018-04-10T01:46:06.746Z,46.73
2018-04-10T01:47:06.771Z,46.7
2018-04-10T01:48:06.793Z,46.72
2018-04-10T01:49:06.834Z,46.76
2018-04-10T01:50:06.974Z,46.74
2018-04-10T01:51:06.866Z,46.76
2018-04-10T01:52:06.767Z,46.74
2018-04-10T01:53:06.746Z,46.77
2018-04-10T01:54:06.754Z,46.78
2018-04-10T01:55:06.750Z,46.74
2018-04-10T01:56:06.744Z,46.78
2018-04-10T01:57:06.775Z,46.77
2018-04-10T01:58:06.809Z,46.74
2018-04-10T01:59:06.791Z,46.81
2018-04-10T02:00:06.786Z,46.78
2018-04-10T02:01:06.733Z,46.78
2018-04-10T02:02:06.901Z,46.78
2018-04-10T02:03:06.758Z,46.76
2018-04-10T02:04:06.732Z,46.77
2018-04-10T02:05:06.756Z,46.76
2018-04-10T02:06:06.773Z,46.77
2018-04-10T02:07:06.789Z,46.76
2018-04-10T02:08:06.786Z,46.74
2018-04-10T02:09:06.750Z,46.76
2018-04-10T02:10:06.743Z,46.77
2018-04-10T02:11:06.790Z,46.73
2018-04-10T02:12:06.765Z,46.81
2018-04-10T02:13:06.738Z,46.79
2018-04-10T02:14:06.758Z,46.76
2018-04-10T02:15:06.735Z,46.77
2018-04-10T02:16:06.751Z,46.77
2018-04-10T02:17:06.741Z,46.79
2018-04-10T02:18:06.885Z,46.8
2018-04-10T02:19:06.730Z,46.84
2018-04-10T02:20:06.739Z,46.83
2018-04-10T02:21:06.802Z,46.79
2018-04-10T02:22:06.780Z,46.74
2018-04-10T02:23:06.762Z,46.77
2018-04-10T02:24:06.735Z,46.77
2018-04-10T02:25:07.278Z,46.75
2018-04-10T02:26:06.735Z,46.78
2018-04-10T02:27:06.780Z,46.77
2018-04-10T02:28:06.781Z,46.74
2018-04-10T02:29:06.759Z,46.78
2018-04-10T02:30:06.880Z,46.76
2018-04-10T02:31:06.738Z,46.8
2018-04-10T02:32:06.809Z,46.77
2018-04-10T02:33:06.805Z,46.74
2018-04-10T02:34:06.802Z,46.75
2018-04-10T02:35:06.810Z,46.75
2018-04-10T02:36:06.746Z,46.81
2018-04-10T02:37:07.004Z,46.79
2018-04-10T02:38:06.783Z,46.76
2018-04-10T02:39:06.758Z,46.69
2018-04-10T02:40:06.831Z,46.75
2018-04-10T02:41:06.737Z,46.74
2018-04-10T02:42:06.799Z,46.76
2018-04-10T02:43:06.770Z,46.79
2018-04-10T02:44:06.763Z,46.8
2018-04-10T02:45:06.801Z,46.76
2018-04-10T02:46:06.771Z,46.76
2018-04-10T02:47:06.752Z,46.79
2018-04-10T02:48:06.814Z,46.82
2018-04-10T02:49:06.748Z,46.8
2018-04-10T02:50:06.737Z,46.86
2018-04-10T02:51:06.793Z,46.82
2018-04-10T02:52:06.717Z,46.79
2018-04-10T02:53:06.737Z,46.79
2018-04-10T02:54:06.741Z,46.79
2018-04-10T02:55:06.742Z,46.82
2018-04-10T02:56:06.761Z,46.84
2018-04-10T02:57:06.747Z,46.76
2018-04-10T02:58:06.917Z,46.79
2018-04-10T02:59:06.759Z,46.81
2018-04-10T03:00:06.716Z,46.76
2018-04-10T03:01:06.755Z,46.77
2018-04-10T03:02:06.722Z,46.82
2018-04-10T03:03:06.761Z,46.76
2018-04-10T03:04:06.765Z,46.76
2018-04-10T03:05:06.747Z,46.8
2018-04-10T03:06:06.775Z,46.75
2018-04-10T03:07:06.716Z,46.75
2018-04-10T03:08:06.753Z,46.76
2018-04-10T03:09:06.710Z,46.75
2018-04-10T03:10:06.845Z,46.76
2018-04-10T03:11:06.829Z,46.75
2018-04-10T03:12:06.769Z,46.76
2018-04-10T03:13:06.744Z,46.76
2018-04-10T03:14:06.821Z,46.8
2018-04-10T03:15:06.728Z,46.8
2018-04-10T03:16:06.740Z,46.76
2018-04-10T03:17:06.710Z,46.8
2018-04-10T03:18:06.738Z,46.74
2018-04-10T03:19:06.762Z,46.74
2018-04-10T03:20:06.767Z,46.81
2018-04-10T03:21:06.748Z,46.77
2018-04-10T03:22:06.781Z,46.77
2018-04-10T03:23:06.710Z,46.81
2018-04-10T03:24:06.772Z,46.86
2018-04-10T03:25:06.726Z,46.84
2018-04-10T03:26:06.748Z,46.83
2018-04-10T03:27:06.738Z,46.83
2018-04-10T03:28:06.761Z,46.79
2018-04-10T03:29:06.939Z,46.89
2018-04-10T03:30:06.793Z,46.81
2018-04-10T03:31:06.728Z,46.77
2018-04-10T03:32:06.894Z,46.8
2018-04-10T03:33:06.737Z,46.81
2018-04-10T03:34:06.747Z,46.78
2018-04-10T03:35:06.737Z,46.82
2018-04-10T03:36:06.711Z,46.81
2018-04-10T03:37:06.735Z,46.76
2018-04-10T03:38:06.729Z,46.8
2018-04-10T03:39:06.727Z,46.76
2018-04-10T03:40:06.704Z,46.76
2018-04-10T03:41:06.744Z,46.75
2018-04-10T03:42:06.749Z,46.82
2018-04-10T03:43:06.887Z,46.76
2018-04-10T03:44:06.883Z,46.79
2018-04-10T03:45:06.745Z,46.82
2018-04-10T03:46:06.804Z,46.81
2018-04-10T03:47:06.760Z,46.78
2018-04-10T03:48:06.810Z,46.88
2018-04-10T03:49:06.774Z,46.71
2018-04-10T03:50:06.712Z,46.7
2018-04-10T03:51:06.703Z,46.68
2018-04-10T03:52:06.714Z,46.71
2018-04-10T03:53:06.698Z,46.59
2018-04-10T03:54:06.786Z,46.63
2018-04-10T03:55:06.723Z,46.63
2018-04-10T03:56:06.753Z,46.63
2018-04-10T03:57:06.776Z,46.63
2018-04-10T03:58:06.731Z,46.68
2018-04-10T03:59:06.855Z,46.64
2018-04-10T04:00:06.737Z,46.61
2018-04-10T04:01:06.779Z,46.6
2018-04-10T04:02:06.788Z,46.59
2018-04-10T04:03:06.747Z,46.59
2018-04-10T04:04:06.746Z,46.55
2018-04-10T04:05:06.707Z,46.56
2018-04-10T04:06:06.710Z,46.57
2018-04-10T04:07:06.733Z,46.48
2018-04-10T04:08:06.724Z,46.41
2018-04-10T04:09:06.740Z,46.51
2018-04-10T04:10:06.721Z,46.37
2018-04-10T04:11:06.708Z,46.42
2018-04-10T04:12:06.726Z,46.37
2018-04-10T04:13:06.748Z,46.33
2018-04-10T04:14:06.720Z,46.3
2018-04-10T04:15:06.748Z,46.3
2018-04-10T04:16:07.073Z,46.26
2018-04-10T04:17:06.717Z,46.28
2018-04-10T04:18:06.729Z,46.3
2018-04-10T04:19:07.030Z,46.3
2018-04-10T04:20:06.775Z,46.24
2018-04-10T04:21:06.725Z,46.33
2018-04-10T04:22:06.743Z,46.32
2018-04-10T04:23:06.752Z,46.26
2018-04-10T04:24:06.721Z,46.3
2018-04-10T04:25:06.952Z,46.28
2018-04-10T04:26:07.020Z,46.32
2018-04-10T04:27:06.716Z,46.38
2018-04-10T04:28:06.720Z,46.2
2018-04-10T04:29:06.764Z,46.33
2018-04-10T04:30:06.733Z,46.27
2018-04-10T04:31:06.894Z,46.28
2018-04-10T04:32:06.763Z,46.33
2018-04-10T04:33:06.721Z,46.3
2018-04-10T04:34:06.729Z,46.3
2018-04-10T04:35:06.853Z,46.34
2018-04-10T04:36:06.729Z,46.33
2018-04-10T04:37:06.847Z,46.31
2018-04-10T04:38:06.743Z,46.31
2018-04-10T04:39:06.739Z,46.28
2018-04-10T04:40:06.713Z,46.29
2018-04-10T04:41:06.698Z,46.39
2018-04-10T04:42:06.712Z,46.4
2018-04-10T04:43:06.851Z,46.31
2018-04-10T04:44:06.784Z,46.38
2018-04-10T04:45:06.708Z,46.33
2018-04-10T04:46:06.747Z,46.3
2018-04-10T04:47:06.769Z,46.3
2018-04-10T04:48:06.679Z,46.3
2018-04-10T04:49:06.808Z,46.25
2018-04-10T04:50:06.708Z,46.3
2018-04-10T04:51:06.756Z,46.39
2018-04-10T04:52:06.897Z,46.31
2018-04-10T04:53:06.770Z,46.32
2018-04-10T04:54:06.712Z,46.39
2018-04-10T04:55:06.703Z,46.38
2018-04-10T04:56:06.735Z,46.25
2018-04-10T04:57:06.721Z,46.39
2018-04-10T04:58:06.756Z,46.29
2018-04-10T04:59:06.702Z,46.35
2018-04-10T05:00:06.722Z,46.35
2018-04-10T05:01:06.738Z,46.28
2018-04-10T05:02:06.711Z,46.29
2018-04-10T05:03:06.702Z,46.39
2018-04-10T05:04:06.691Z,46.27
2018-04-10T05:05:06.710Z,46.35
2018-04-10T05:06:06.755Z,46.38
2018-04-10T05:07:06.798Z,46.35
2018-04-10T05:08:06.726Z,46.35
2018-04-10T05:09:06.725Z,46.36
2018-04-10T05:10:06.695Z,46.27
2018-04-10T05:11:06.791Z,46.29
2018-04-10T05:12:06.842Z,46.34
2018-04-10T05:13:06.767Z,46.33
2018-04-10T05:14:06.734Z,46.34
2018-04-10T05:15:06.703Z,46.41
2018-04-10T05:16:06.767Z,46.35
2018-04-10T05:17:06.783Z,46.39
2018-04-10T05:18:06.711Z,46.41
2018-04-10T05:19:06.705Z,46.4
2018-04-10T05:20:06.729Z,46.33
2018-04-10T05:21:06.689Z,46.39
2018-04-10T05:22:06.801Z,46.35
2018-04-10T05:23:06.680Z,46.36
2018-04-10T05:24:06.722Z,46.36
2018-04-10T05:25:06.700Z,46.34
2018-04-10T05:26:06.742Z,46.3
2018-04-10T05:27:06.849Z,46.36
2018-04-10T05:28:06.679Z,46.34
2018-04-10T05:29:06.687Z,46.39
2018-04-10T05:30:06.688Z,46.4
2018-04-10T05:31:06.702Z,46.37
2018-04-10T05:32:06.686Z,46.35
2018-04-10T05:33:06.684Z,46.41
2018-04-10T05:34:06.726Z,46.36
2018-04-10T05:35:06.728Z,46.3
2018-04-10T05:36:06.695Z,46.43
2018-04-10T05:37:06.734Z,46.35
2018-04-10T05:38:06.729Z,46.32
2018-04-10T05:39:06.789Z,46.34
2018-04-10T05:40:06.796Z,46.32
2018-04-10T05:41:06.708Z,46.28
2018-04-10T05:42:06.713Z,46.31
2018-04-10T05:43:06.716Z,46.33
2018-04-10T05:44:06.721Z,46.36
2018-04-10T05:45:06.664Z,46.37
2018-04-10T05:46:06.696Z,46.32
2018-04-10T05:47:06.990Z,46.32
2018-04-10T05:48:06.993Z,46.27
2018-04-10T05:49:06.805Z,46.18
2018-04-10T05:50:06.735Z,46.3
2018-04-10T05:51:06.659Z,46.25
2018-04-10T05:52:06.756Z,46.33
2018-04-10T05:53:07.036Z,46.35
2018-04-10T05:54:06.671Z,46.34
2018-04-10T05:55:06.756Z,46.36
2018-04-10T05:56:06.763Z,46.36
2018-04-10T05:57:06.771Z,46.4
2018-04-10T05:58:06.804Z,46.39
2018-04-10T05:59:07.239Z,46.37
2018-04-10T06:00:09.534Z,46.37
2018-04-10T06:01:06.763Z,46.37
2018-04-10T06:02:09.418Z,46.39
2018-04-10T06:03:09.187Z,46.32
2018-04-10T06:04:06.737Z,46.35
2018-04-10T06:05:07.216Z,46.3
2018-04-10T06:06:09.216Z,46.32
2018-04-10T06:07:06.772Z,46.37
2018-04-10T06:08:06.755Z,46.32
2018-04-10T06:09:09.159Z,46.56
2018-04-10T06:10:06.784Z,46.5
2018-04-10T06:11:06.741Z,46.36
2018-04-10T06:12:09.164Z,46.47
2018-04-10T06:13:06.674Z,46.44
2018-04-10T06:14:06.881Z,46.42
2018-04-10T06:15:06.717Z,46.44
2018-04-10T06:16:06.682Z,46.44
2018-04-10T06:17:06.681Z,46.44
2018-04-10T06:18:06.683Z,46.42
2018-04-10T06:19:06.677Z,46.48
2018-04-10T06:20:06.672Z,46.45
2018-04-10T06:21:06.711Z,46.45
2018-04-10T06:22:06.691Z,46.47
2018-04-10T06:23:06.689Z,46.46
2018-04-10T06:24:06.750Z,46.42
2018-04-10T06:25:06.667Z,46.38
2018-04-10T06:26:06.649Z,46.45
2018-04-10T06:27:06.701Z,46.4
2018-04-10T06:28:06.751Z,46.45
2018-04-10T06:29:06.774Z,46.39
2018-04-10T06:30:06.682Z,46.33
2018-04-10T06:31:06.640Z,46.44
2018-04-10T06:32:06.679Z,46.4
2018-04-10T06:33:06.680Z,46.42
2018-04-10T06:34:06.706Z,46.42
2018-04-10T06:35:06.673Z,46.36
2018-04-10T06:36:06.725Z,46.43
2018-04-10T06:37:06.917Z,46.39
2018-04-10T06:38:06.666Z,46.35
2018-04-10T06:39:06.686Z,46.38
2018-04-10T06:40:06.656Z,46.4
2018-04-10T06:41:06.759Z,46.39
2018-04-10T06:42:06.709Z,46.39
2018-04-10T06:43:06.802Z,46.35
2018-04-10T06:44:06.671Z,46.21
2018-04-10T06:45:06.960Z,46.4
2018-04-10T06:46:06.730Z,46.66
2018-04-10T06:47:06.687Z,46.69
2018-04-10T06:48:06.710Z,46.69
2018-04-10T06:49:06.689Z,46.65
2018-04-10T06:50:06.793Z,46.55
2018-04-10T06:51:06.680Z,46.54
2018-04-10T06:52:06.663Z,46.56
2018-04-10T06:53:06.689Z,46.58
2018-04-10T06:54:06.721Z,46.69
2018-04-10T06:55:06.714Z,46.63
2018-04-10T06:56:06.659Z,46.63
2018-04-10T06:57:06.676Z,46.64
2018-04-10T06:58:06.728Z,46.58
2018-04-10T06:59:06.723Z,46.62
2018-04-10T07:00:06.725Z,46.73
2018-04-10T07:01:06.733Z,46.63
2018-04-10T07:02:06.683Z,46.7
2018-04-10T07:03:06.668Z,46.68
2018-04-10T07:04:06.900Z,46.64
2018-04-10T07:05:06.665Z,46.68
2018-04-10T07:06:06.679Z,46.76
2018-04-10T07:07:06.710Z,46.58
2018-04-10T07:08:06.687Z,46.67
2018-04-10T07:09:06.673Z,46.85
2018-04-10T07:10:06.682Z,46.78
2018-04-10T07:11:06.648Z,46.81
2018-04-10T07:12:06.812Z,46.71
2018-04-10T07:13:06.794Z,46.67
2018-04-10T07:14:06.706Z,46.81
2018-04-10T07:15:06.649Z,46.82
2018-04-10T07:16:06.685Z,46.79
2018-04-10T07:17:06.666Z,46.97
2018-04-10T07:18:06.683Z,46.9
2018-04-10T07:19:06.687Z,46.84
2018-04-10T07:20:06.716Z,46.9
2018-04-10T07:21:06.650Z,46.89
2018-04-10T07:22:06.663Z,46.79
2018-04-10T07:23:06.655Z,46.88
2018-04-10T07:24:06.906Z,46.86
2018-04-10T07:25:06.640Z,46.81
2018-04-10T07:26:07.089Z,46.8
2018-04-10T07:27:06.668Z,47.15
2018-04-10T07:28:06.952Z,46.7
2018-04-10T07:29:06.903Z,46.71
2018-04-10T07:30:06.666Z,46.79
2018-04-10T07:31:06.667Z,46.91
2018-04-10T07:32:06.890Z,46.94
2018-04-10T07:33:06.668Z,46.88
2018-04-10T07:34:07.053Z,46.76
2018-04-10T07:35:06.928Z,46.81
2018-04-10T07:36:06.749Z,46.81
2018-04-10T07:37:06.675Z,46.81
2018-04-10T07:38:06.632Z,46.87
2018-04-10T07:39:06.675Z,47.02
2018-04-10T07:40:06.721Z,47.01
2018-04-10T07:41:06.685Z,47.03
2018-04-10T07:42:06.653Z,47.03
2018-04-10T07:43:06.695Z,46.99
2018-04-10T07:44:06.705Z,47.05
2018-04-10T07:45:06.813Z,47
2018-04-10T07:46:06.982Z,46.96
2018-04-10T07:47:06.702Z,46.98
2018-04-10T07:48:07.064Z,46.98
2018-04-10T07:49:06.693Z,46.89
2018-04-10T07:50:06.637Z,46.98
2018-04-10T07:51:06.708Z,47
2018-04-10T07:52:06.621Z,46.95
2018-04-10T07:53:06.624Z,46.83
2018-04-10T07:54:06.655Z,46.69
2018-04-10T07:55:06.595Z,46.55
2018-04-10T07:56:06.712Z,46.65
2018-04-10T07:57:06.677Z,46.74
2018-04-10T07:58:06.715Z,46.68
2018-04-10T07:59:06.637Z,46.78
2018-04-10T08:00:06.722Z,46.84
2018-04-10T08:01:06.688Z,46.74
2018-04-10T08:02:06.614Z,46.73
2018-04-10T08:03:06.675Z,46.74
2018-04-10T08:04:06.654Z,46.72
2018-04-10T08:05:06.787Z,46.68
2018-04-10T08:06:06.654Z,46.83
2018-04-10T08:07:06.637Z,46.75
2018-04-10T08:08:06.640Z,46.97
2018-04-10T08:09:06.653Z,46.83
2018-04-10T08:10:06.632Z,46.75
2018-04-10T08:11:06.688Z,46.78
2018-04-10T08:12:06.658Z,46.79
2018-04-10T08:13:06.660Z,46.74
2018-04-10T08:14:06.646Z,46.83
2018-04-10T08:15:06.648Z,46.78
2018-04-10T08:16:06.708Z,46.79
2018-04-10T08:17:06.629Z,46.76
2018-04-10T08:18:06.647Z,46.73
2018-04-10T08:19:06.664Z,46.7
2018-04-10T08:20:06.640Z,46.79
2018-04-10T08:21:06.775Z,46.79
2018-04-10T08:22:06.650Z,46.66
2018-04-10T08:23:06.622Z,46.87
2018-04-10T08:24:06.730Z,46.87
2018-04-10T08:25:06.612Z,46.91
2018-04-10T08:26:06.662Z,46.83
2018-04-10T08:27:06.640Z,46.96
2018-04-10T08:28:06.654Z,46.95
2018-04-10T08:29:06.614Z,47.03
2018-04-10T08:30:06.641Z,47.03
2018-04-10T08:31:06.651Z,46.9
2018-04-10T08:32:06.646Z,46.94
2018-04-10T08:33:06.690Z,46.97
2018-04-10T08:34:06.610Z,47.03
2018-04-10T08:35:06.707Z,47
2018-04-10T08:36:06.643Z,47.26
2018-04-10T08:37:06.614Z,47.05
2018-04-10T08:38:06.623Z,47.13
2018-04-10T08:39:06.821Z,47.13
2018-04-10T08:40:06.606Z,47.1
2018-04-10T08:41:06.637Z,47.14
2018-04-10T08:42:06.714Z,47.07
2018-04-10T08:43:06.609Z,47.05
2018-04-10T08:44:06.661Z,47.12
2018-04-10T08:45:07.196Z,47.08
2018-04-10T08:46:06.664Z,46.8
2018-04-10T08:47:06.653Z,46.85
2018-04-10T08:48:06.588Z,46.94
2018-04-10T08:49:06.670Z,47.24
2018-04-10T08:50:06.663Z,47.36
2018-04-10T08:51:06.684Z,47.36
2018-04-10T08:52:06.655Z,47.16
2018-04-10T08:53:06.649Z,47.28
2018-04-10T08:54:06.881Z,47.21
2018-04-10T08:55:06.631Z,47.13
2018-04-10T08:56:06.738Z,47.18
2018-04-10T08:57:06.640Z,47.19
2018-04-10T08:58:07.128Z,47.12
2018-04-10T08:59:06.784Z,47.23
2018-04-10T09:00:06.644Z,47.28
2018-04-10T09:01:06.611Z,47.13
2018-04-10T09:02:06.788Z,47.22
2018-04-10T09:03:06.652Z,47.22
2018-04-10T09:04:06.653Z,47.25
2018-04-10T09:05:06.644Z,47.19
2018-04-10T09:06:06.732Z,47.25
2018-04-10T09:07:06.654Z,47.16
2018-04-10T09:08:06.638Z,47.18
2018-04-10T09:09:06.778Z,47.3
2018-04-10T09:10:06.631Z,47.11
2018-04-10T09:11:06.654Z,47.16
2018-04-10T09:12:06.665Z,47.22
2018-04-10T09:13:06.736Z,47.22
2018-04-10T09:14:06.735Z,47.17
2018-04-10T09:15:06.599Z,47.28
2018-04-10T09:16:06.643Z,47.3
2018-04-10T09:17:06.641Z,47.25
2018-04-10T09:18:06.635Z,47.16
2018-04-10T09:19:06.675Z,47.06
2018-04-10T09:20:06.605Z,47.08
2018-04-10T09:21:06.641Z,47.09
2018-04-10T09:22:06.729Z,47.14
2018-04-10T09:23:06.621Z,47.19
2018-04-10T09:24:06.635Z,47.17
2018-04-10T09:25:06.680Z,47.11
2018-04-10T09:26:06.625Z,47.14
2018-04-10T09:27:06.656Z,47.08
2018-04-10T09:28:06.729Z,47.12
2018-04-10T09:29:06.979Z,47.05
2018-04-10T09:30:06.603Z,47.08
2018-04-10T09:31:06.627Z,47.05
2018-04-10T09:32:06.670Z,47.04
2018-04-10T09:33:06.753Z,47.06
2018-04-10T09:34:06.628Z,47.01
2018-04-10T09:35:06.599Z,47.09
2018-04-10T09:36:06.597Z,47.04
2018-04-10T09:37:06.751Z,47.05
2018-04-10T09:38:06.630Z,46.96
2018-04-10T09:39:06.626Z,46.99
2018-04-10T09:40:06.594Z,46.97
2018-04-10T09:41:06.590Z,47.01
2018-04-10T09:42:06.608Z,47.04
2018-04-10T09:43:06.663Z,46.9
2018-04-10T09:44:06.645Z,46.95
2018-04-10T09:45:06.612Z,46.96
2018-04-10T09:46:06.598Z,46.91
2018-04-10T09:47:06.615Z,46.92
2018-04-10T09:48:06.606Z,46.96
2018-04-10T09:49:06.601Z,46.96
2018-04-10T09:50:06.613Z,46.96
2018-04-10T09:51:06.663Z,46.84
2018-04-10T09:52:06.624Z,46.89
2018-04-10T09:53:06.675Z,46.88
2018-04-10T09:54:06.612Z,46.91
2018-04-10T09:55:06.665Z,46.98
2018-04-10T09:56:06.654Z,46.9
2018-04-10T09:57:06.696Z,46.96
2018-04-10T09:58:06.643Z,46.94
2018-04-10T09:59:06.721Z,46.91
2018-04-10T10:00:06.590Z,46.88
2018-04-10T10:01:06.675Z,46.97
2018-04-10T10:02:06.641Z,46.93
2018-04-10T10:03:06.636Z,46.93
2018-04-10T10:04:06.576Z,46.94
2018-04-10T10:05:06.635Z,46.99
2018-04-10T10:06:06.616Z,46.91
2018-04-10T10:07:06.576Z,46.94
2018-04-10T10:08:06.709Z,47.01
2018-04-10T10:09:06.646Z,46.99
2018-04-10T10:10:06.596Z,46.93
2018-04-10T10:11:06.718Z,46.94
2018-04-10T10:12:06.648Z,46.93
2018-04-10T10:13:06.642Z,46.97
2018-04-10T10:14:06.625Z,46.93
2018-04-10T10:15:06.601Z,47.19
2018-04-10T10:16:06.647Z,47.62
2018-04-10T10:17:06.665Z,47.59
2018-04-10T10:18:06.647Z,47.95
2018-04-10T10:19:06.634Z,47.59
2018-04-10T10:20:06.634Z,47.66
2018-04-10T10:21:06.602Z,47.62
2018-04-10T10:22:06.605Z,47.5
2018-04-10T10:23:06.626Z,47.68
2018-04-10T10:24:06.588Z,47.78
2018-04-10T10:25:06.639Z,47.77
2018-04-10T10:26:06.622Z,47.74
2018-04-10T10:27:06.654Z,47.84
2018-04-10T10:28:06.621Z,47.74
2018-04-10T10:29:06.595Z,48
2018-04-10T10:30:06.618Z,48.09
2018-04-10T10:31:06.648Z,47.96
2018-04-10T10:32:06.810Z,47.91
2018-04-10T10:33:06.608Z,47.9
2018-04-10T10:34:06.619Z,47.82
2018-04-10T10:35:06.567Z,47.8
2018-04-10T10:36:06.632Z,47.97
2018-04-10T10:37:06.565Z,48.06
2018-04-10T10:38:06.824Z,48.07
2018-04-10T10:39:06.900Z,48.09
2018-04-10T10:40:06.685Z,47.95
2018-04-10T10:41:06.602Z,48.08
2018-04-10T10:42:06.627Z,48.11
2018-04-10T10:43:06.815Z,47.88
2018-04-10T10:44:06.646Z,48.02
2018-04-10T10:45:06.627Z,48
2018-04-10T10:46:06.638Z,47.92
2018-04-10T10:47:06.927Z,48.06
2018-04-10T10:48:06.690Z,47.99
2018-04-10T10:49:06.595Z,47.94
2018-04-10T10:50:06.611Z,48.11
2018-04-10T10:51:06.597Z,48.06
2018-04-10T10:52:06.586Z,47.97
2018-04-10T10:53:06.596Z,47.97
2018-04-10T10:54:06.610Z,48.08
2018-04-10T10:55:06.685Z,47.92
2018-04-10T10:56:06.579Z,48.04
2018-04-10T10:57:06.565Z,47.93
2018-04-10T10:58:07.069Z,47.57
2018-04-10T10:59:06.596Z,47.7
2018-04-10T11:00:06.566Z,47.69
2018-04-10T11:01:06.893Z,47.79
2018-04-10T11:02:06.605Z,47.85
2018-04-10T11:03:06.772Z,47.83
2018-04-10T11:04:06.625Z,47.68
2018-04-10T11:05:06.623Z,47.73
2018-04-10T11:06:06.576Z,47.78
2018-04-10T11:07:06.599Z,47.58
2018-04-10T11:08:06.645Z,47.68
2018-04-10T11:09:06.599Z,47.66
2018-04-10T11:10:06.762Z,47.52
2018-04-10T11:11:06.699Z,47.63
2018-04-10T11:12:06.669Z,47.61
2018-04-10T11:13:06.728Z,47.51
2018-04-10T11:14:06.693Z,47.64
2018-04-10T11:15:06.679Z,47.54
2018-04-10T11:16:06.687Z,47.45
2018-04-10T11:17:06.580Z,47.56
2018-04-10T11:18:06.637Z,47.5
2018-04-10T11:19:06.583Z,47.4
2018-04-10T11:20:06.675Z,47.5
2018-04-10T11:21:06.589Z,47.5
2018-04-10T11:22:06.595Z,47.32
2018-04-10T11:23:06.586Z,47.45
2018-04-10T11:24:06.559Z,47.4
2018-04-10T11:25:06.584Z,47.3
2018-04-10T11:26:06.582Z,47.44
2018-04-10T11:27:06.621Z,47.3
2018-04-10T11:28:06.560Z,47.42
2018-04-10T11:29:06.543Z,47.3
2018-04-10T11:30:06.579Z,47.28
2018-04-10T11:31:06.551Z,47.33
2018-04-10T11:32:06.600Z,47.24
2018-04-10T11:33:06.610Z,47.23
2018-04-10T11:34:06.571Z,47.26
2018-04-10T11:35:06.610Z,47.24
2018-04-10T11:36:06.601Z,47.24
2018-04-10T11:37:06.542Z,47.26
2018-04-10T11:38:06.773Z,47.47
2018-04-10T11:39:06.864Z,47.58
2018-04-10T11:40:06.570Z,47.7
2018-04-10T11:41:06.550Z,47.77
2018-04-10T11:42:06.577Z,47.67
2018-04-10T11:43:06.896Z,47.54
2018-04-10T11:44:06.574Z,47.55
2018-04-10T11:45:06.618Z,47.54
2018-04-10T11:46:06.570Z,47.43
2018-04-10T11:47:06.602Z,47.53
2018-04-10T11:48:06.597Z,47.61
2018-04-10T11:49:06.581Z,47.5
2018-04-10T11:50:06.538Z,47.65
2018-04-10T11:51:06.564Z,47.71
2018-04-10T11:52:06.630Z,47.57
2018-04-10T11:53:06.595Z,47.71
2018-04-10T11:54:06.614Z,47.55
2018-04-10T11:55:06.563Z,47.51
2018-04-10T11:56:06.558Z,47.54
2018-04-10T11:57:06.597Z,47.68
2018-04-10T11:58:06.539Z,47.5
2018-04-10T11:59:06.580Z,47.68
2018-04-10T12:00:06.566Z,47.66
2018-04-10T12:01:06.640Z,47.69
2018-04-10T12:02:06.631Z,47.7
2018-04-10T12:03:06.590Z,47.72
2018-04-10T12:04:06.622Z,47.62
2018-04-10T12:05:06.595Z,47.67
2018-04-10T12:06:06.574Z,47.63
2018-04-10T12:07:06.581Z,47.7
2018-04-10T12:08:06.543Z,47.78
2018-04-10T12:09:06.557Z,47.76
2018-04-10T12:10:06.615Z,47.64
2018-04-10T12:11:06.559Z,47.79
2018-04-10T12:12:06.547Z,47.82
2018-04-10T12:13:06.565Z,47.95
2018-04-10T12:14:06.578Z,47.89
2018-04-10T12:15:06.749Z,47.87
2018-04-10T12:16:06.934Z,47.76
2018-04-10T12:17:06.555Z,47.84
2018-04-10T12:18:06.539Z,47.8
2018-04-10T12:19:06.568Z,47.88
2018-04-10T12:20:06.597Z,47.58
2018-04-10T12:21:06.598Z,47.5
2018-04-10T12:22:06.559Z,47.59
2018-04-10T12:23:06.573Z,47.51
2018-04-10T12:24:06.536Z,47.58
2018-04-10T12:25:06.584Z,47.48
2018-04-10T12:26:06.587Z,47.62
2018-04-10T12:27:06.591Z,47.67
2018-04-10T12:28:06.550Z,47.49
2018-04-10T12:29:06.659Z,47.63
2018-04-10T12:30:06.609Z,47.62
2018-04-10T12:31:06.548Z,47.47
2018-04-10T12:32:06.585Z,47.67
2018-04-10T12:33:06.540Z,47.58
2018-04-10T12:34:06.565Z,47.43
2018-04-10T12:35:06.604Z,47.57
2018-04-10T12:36:06.508Z,47.54
2018-04-10T12:37:06.567Z,47.45
2018-04-10T12:38:06.534Z,47.52
2018-04-10T12:39:06.563Z,47.46
2018-04-10T12:40:06.569Z,47.41
2018-04-10T12:41:06.550Z,47.43
2018-04-10T12:42:06.556Z,47.45
2018-04-10T12:43:07.023Z,47.41
2018-04-10T12:44:06.561Z,47.39
2018-04-10T12:45:06.672Z,47.47
2018-04-10T12:46:06.563Z,47.34
2018-04-10T12:47:06.665Z,47.31
2018-04-10T12:48:06.567Z,47.37
2018-04-10T12:49:06.576Z,47.45
2018-04-10T12:50:06.607Z,47.38
2018-04-10T12:51:06.577Z,47.31
2018-04-10T12:52:06.558Z,47.37
2018-04-10T12:53:06.560Z,47.51
2018-04-10T12:54:06.604Z,47.62
2018-04-10T12:55:06.611Z,47.64